River Kern, California
Current Conditions -  °F | °C
As of 12:56 PM on Wednesday 26 Nov 2014 (Local Time) from KNID Reporting Station
Clear Clear  
Wind Chill: 68°   Ceiling: Unl
Heat Index: 68°   Visibility: 10mi
Dew Point: 11°   Wind: 0mph
Humidity: 11%   Direction: NA
Pressure: 30.32"   Gusts: NA
Location:  35.8452°N, 118.355°W
Report Text: KNID 262056Z 00000KT 10SM CLR 20/M12 A3032 RMK AO2 SLP268 T02001117 56031 $
Loading
Personal Weather Stations






























Interactive Weather Map New forecast layout! Learn more

10-Day Weather Forecast

Advertisements
Track Severe Weather on mobile